Time;durP1;ratioP1;P1;durP2;ratioP2;P2;SDS_P1;SDS_P2;PMS_P1;PMS_P2;Temp;Humidity;BMP_temperature;BMP_pressure;BME280_temperature;BME280_humidity;BME280_pressure;Samples;Min_cycle;Max_cycle;Signal;HPM_P1;HPM_P2
2023/06/30 00:00:18;;;;;;;2.17;1.63;;;21.70;68.20;;;;;;5074913;28;20055;-40
2023/06/30 00:02:46;;;;;;;2.33;1.80;;;21.60;79.10;;;;;;5074704;28;20517;-41
2023/06/30 00:05:13;;;;;;;3.58;1.70;;;21.10;78.80;;;;;;5075001;28;20048;-40
2023/06/30 00:07:42;;;;;;;2.38;1.45;;;21.00;64.50;;;;;;5086883;28;20044;-41
2023/06/30 00:10:09;;;;;;;2.78;1.73;;;21.30;62.50;;;;;;5085156;28;20417;-39
2023/06/30 00:12:36;;;;;;;2.55;1.60;;;21.80;79.40;;;;;;5074476;28;20131;-40
2023/06/30 00:15:03;;;;;;;2.53;1.60;;;21.00;78.70;;;;;;5074956;28;20080;-41
2023/06/30 00:17:31;;;;;;;2.53;1.55;;;21.30;78.20;;;;;;5077125;28;20136;-41
2023/06/30 00:19:59;;;;;;;3.78;1.80;;;21.80;77.30;;;;;;5094759;28;20139;-41
2023/06/30 00:22:26;;;;;;;3.42;1.50;;;;;;;;;;5094524;28;20543;-37
2023/06/30 00:24:54;;;;;;;2.80;1.75;;;22.30;79.20;;;;;;5094088;28;20074;-41
2023/06/30 00:27:21;;;;;;;2.20;1.50;;;;;;;;;;5074740;28;20049;-40
2023/06/30 00:29:48;;;;;;;3.08;1.55;;;;;;;;;;5074632;28;20049;-40
2023/06/30 00:32:15;;;;;;;2.67;1.67;;;21.60;79.20;;;;;;5080190;28;20530;-40
2023/06/30 00:34:43;;;;;;;4.88;1.60;;;21.00;78.80;;;;;;5094348;28;20044;-40
2023/06/30 00:37:10;;;;;;;2.25;1.35;;;20.40;76.80;;;;;;5094072;28;20712;-37
2023/06/30 00:39:36;;;;;;;2.22;1.45;;;21.20;68.40;;;;;;5094720;28;20127;-37
2023/06/30 00:42:03;;;;;;;1.90;1.40;;;;;;;;;;5084235;28;20108;-33
2023/06/30 00:44:30;;;;;;;3.53;1.60;;;;;;;;;;5074022;28;20128;-35
2023/06/30 00:47:00;;;;;;;3.03;1.48;;;;;;;;;;5074385;28;20054;-39
2023/06/30 00:49:27;;;;;;;3.50;1.58;;;;;;;;;;5074266;28;20136;-38
2023/06/30 00:51:55;;;;;;;2.83;1.55;;;20.80;73.30;;;;;;5073870;28;20131;-37
2023/06/30 00:54:22;;;;;;;2.13;1.50;;;21.50;78.70;;;;;;5073548;28;20131;-37
2023/06/30 00:56:49;;;;;;;1.73;1.38;;;;;;;;;;5074200;28;20564;-36
2023/06/30 00:59:16;;;;;;;3.65;2.00;;;21.10;79.20;;;;;;5090593;28;20482;-40
2023/06/30 01:01:46;;;;;;;2.22;1.38;;;21.20;62.30;;;;;;5094002;28;20131;-38
2023/06/30 01:04:16;;;;;;;1.58;1.38;;;21.20;62.30;;;;;;5093834;28;20052;-36
2023/06/30 01:06:47;;;;;;;1.85;1.42;;;21.30;66.40;;;;;;5094025;28;20497;-38
2023/06/30 01:09:16;;;;;;;3.08;1.63;;;21.00;75.90;;;;;;5094146;28;20047;-39
2023/06/30 01:11:43;;;;;;;3.80;1.73;;;;;;;;;;5094123;28;20130;-37
2023/06/30 01:14:10;;;;;;;2.38;1.50;;;20.90;79.20;;;;;;5080685;28;20058;-40
2023/06/30 01:16:37;;;;;;;2.70;1.40;;;;;;;;;;5076066;28;20456;-35
2023/06/30 01:19:07;;;;;;;2.25;1.50;;;21.20;79.20;;;;;;5073550;28;20143;-39
2023/06/30 01:21:34;;;;;;;3.17;1.52;;;;;;;;;;5073466;28;20417;-33
2023/06/30 01:24:03;;;;;;;2.22;1.48;;;21.10;62.10;;;;;;5073301;28;20131;-39
2023/06/30 01:26:34;;;;;;;2.53;1.50;;;20.90;73.00;;;;;;5073504;28;20051;-39
2023/06/30 01:29:01;;;;;;;2.45;1.60;;;21.10;69.90;;;;;;5073348;28;20076;-38
2023/06/30 01:31:30;;;;;;;1.40;1.20;;;20.10;70.50;;;;;;5073267;28;20126;-38
2023/06/30 01:33:57;;;;;;;2.78;1.65;;;20.80;78.20;;;;;;5072900;28;20132;-40
2023/06/30 01:36:24;;;;;;;2.17;1.30;;;21.10;65.90;;;;;;5077334;28;20044;-36
2023/06/30 01:38:51;;;;;;;2.58;1.50;;;20.10;77.80;;;;;;5093332;28;20131;-38
2023/06/30 01:41:17;;;;;;;2.97;1.30;;;21.40;78.70;;;;;;5093381;28;20135;-40
2023/06/30 01:43:46;;;;;;;1.83;1.40;;;20.10;65.00;;;;;;5093081;28;20130;-38
2023/06/30 01:46:13;;;;;;;2.25;1.50;;;;;;;;;;5092683;28;20419;-37
2023/06/30 01:48:40;;;;;;;2.78;1.50;;;21.40;78.90;;;;;;5092984;28;20127;-36
2023/06/30 01:51:08;;;;;;;2.53;1.50;;;;;;;;;;5093083;28;20044;-38
2023/06/30 01:53:35;;;;;;;2.40;1.60;;;21.10;62.00;;;;;;5092048;28;20130;-37
2023/06/30 01:56:01;;;;;;;2.17;1.40;;;20.20;78.70;;;;;;5093555;28;20130;-40
2023/06/30 01:58:28;;;;;;;2.13;1.40;;;21.60;78.70;;;;;;5093167;28;20123;-40
2023/06/30 02:00:56;;;;;;;2.10;1.40;;;21.50;64.70;;;;;;5092262;28;20050;-37
2023/06/30 02:03:23;;;;;;;5.07;1.38;;;21.30;66.50;;;;;;5089762;28;20428;-37
2023/06/30 02:05:50;;;;;;;2.20;1.40;;;;;;;;;;5092291;28;20048;-39
2023/06/30 02:08:17;;;;;;;2.88;1.58;;;;;;;;;;5092258;28;20051;-38
2023/06/30 02:10:44;;;;;;;1.75;1.17;;;21.20;78.60;;;;;;5091854;28;20580;-41
2023/06/30 02:13:10;;;;;;;1.98;1.33;;;20.70;78.90;;;;;;5091879;28;20140;-40
2023/06/30 02:15:37;;;;;;;1.85;1.27;;;21.20;65.90;;;;;;5091273;28;20044;-36
2023/06/30 02:18:05;;;;;;;2.70;1.33;;;20.00;65.50;;;;;;5083638;28;20511;-38
2023/06/30 02:20:33;;;;;;;1.58;1.27;;;21.00;78.10;;;;;;5071672;28;20044;-36
2023/06/30 02:23:00;;;;;;;2.47;1.40;;;22.20;73.50;;;;;;5071323;28;20051;-37
2023/06/30 02:25:26;;;;;;;1.90;1.35;;;21.10;67.70;;;;;;5071452;28;20088;-38
2023/06/30 02:27:53;;;;;;;1.83;1.10;;;20.80;66.60;;;;;;5071395;28;20284;-36
2023/06/30 02:30:20;;;;;;;3.08;1.38;;;21.40;78.60;;;;;;5071614;28;20097;-40
2023/06/30 02:32:47;;;;;;;2.72;1.40;;;;;;;;;;5081226;28;20056;-41
2023/06/30 02:35:16;;;;;;;3.05;1.40;;;20.80;78.30;;;;;;5071786;28;20040;-38
2023/06/30 02:37:42;;;;;;;1.90;1.30;;;21.00;78.40;;;;;;5086403;28;20054;-39
2023/06/30 02:40:09;;;;;;;2.25;1.30;;;20.90;78.00;;;;;;5089940;28;20044;-38
2023/06/30 02:42:36;;;;;;;1.90;1.30;;;;;;;;;;5090339;28;20575;-38
2023/06/30 02:45:04;;;;;;;2.28;1.50;;;;;;;;;;5090443;28;20151;-39
2023/06/30 02:47:31;;;;;;;1.67;1.20;;;21.50;79.00;;;;;;5091172;28;20547;-39
2023/06/30 02:49:57;;;;;;;1.73;1.23;;;22.10;78.50;;;;;;5084024;28;20135;-39
2023/06/30 02:52:25;;;;;;;2.53;1.30;;;20.50;61.60;;;;;;5070826;28;20585;-36
2023/06/30 02:54:53;;;;;;;2.90;1.40;;;;;;;;;;5071815;28;20048;-37
2023/06/30 02:57:20;;;;;;;1.92;1.30;;;20.70;78.70;;;;;;5076623;28;20090;-39
2023/06/30 02:59:47;;;;;;;3.67;1.33;;;;;;;;;;5091728;28;20519;-36
2023/06/30 03:02:14;;;;;;;2.72;1.38;;;20.90;77.70;;;;;;5091967;28;20123;-38
2023/06/30 03:04:41;;;;;;;2.97;1.50;;;;;;;;;;5091655;28;20135;-37
2023/06/30 03:07:08;;;;;;;2.42;1.30;;;22.00;78.50;;;;;;5091293;28;20465;-39
2023/06/30 03:09:36;;;;;;;2.15;1.20;;;20.80;67.90;;;;;;5091927;28;20127;-37
2023/06/30 03:12:03;;;;;;;2.22;1.30;;;;;;;;;;5091493;28;20142;-40
2023/06/30 03:14:30;;;;;;;3.75;1.50;;;;;;;;;;5091679;28;20131;-40
2023/06/30 03:16:56;;;;;;;2.63;1.40;;;21.90;78.50;;;;;;5091920;28;20052;-39
2023/06/30 03:19:23;;;;;;;2.90;1.38;;;21.10;64.70;;;;;;5091842;28;20131;-38
2023/06/30 03:21:50;;;;;;;3.03;1.30;;;21.20;78.40;;;;;;5085759;28;20057;-40
2023/06/30 03:24:17;;;;;;;2.55;1.50;;;20.70;77.90;;;;;;5092262;28;20048;-40
2023/06/30 03:26:45;;;;;;;2.33;1.25;;;20.40;70.50;;;;;;5095996;28;20075;-39
2023/06/30 03:29:11;;;;;;;2.92;1.30;;;21.60;69.60;;;;;;5095982;28;20131;-40
2023/06/30 03:31:38;;;;;;;2.15;1.33;;;20.50;77.70;;;;;;5095708;28;20126;-38
2023/06/30 03:34:05;;;;;;;2.67;1.50;;;20.80;78.20;;;;;;5095525;28;20075;-39
2023/06/30 03:36:32;;;;;;;1.70;1.20;;;;;;;;;;5095243;28;20087;-37
2023/06/30 03:38:59;;;;;;;2.47;1.40;;;20.40;68.60;;;;;;5082729;28;20048;-38
2023/06/30 03:41:26;;;;;;;1.50;1.10;;;19.90;77.40;;;;;;5075500;28;20129;-38
2023/06/30 03:43:54;;;;;;;2.90;1.30;;;21.20;78.00;;;;;;5075050;28;20552;-38
2023/06/30 03:46:21;;;;;;;2.45;1.23;;;20.50;77.70;;;;;;5075502;28;20056;-37
2023/06/30 03:48:48;;;;;;;2.78;1.10;;;;;;;;;;5075168;28;20127;-36
2023/06/30 03:51:15;;;;;;;2.22;1.30;;;21.60;78.20;;;;;;5075232;28;20136;-40
2023/06/30 03:53:42;;;;;;;2.00;1.30;;;22.00;78.40;;;;;;5080160;28;20135;-39
2023/06/30 03:56:09;;;;;;;2.40;1.52;;;20.80;78.60;;;;;;5092838;28;20122;-40
2023/06/30 03:58:35;;;;;;;2.22;1.30;;;21.00;78.20;;;;;;5095374;28;20136;-39
2023/06/30 04:01:03;;;;;;;1.63;1.20;;;20.90;61.30;;;;;;5095347;28;20054;-36
2023/06/30 04:03:31;;;;;;;1.23;1.02;;;;;;;;;;5095063;28;20127;-40
2023/06/30 04:05:57;;;;;;;2.45;1.30;;;20.90;78.20;;;;;;5074541;28;20509;-39
2023/06/30 04:08:24;;;;;;;2.25;1.40;;;20.60;77.70;;;;;;5075145;28;20135;-40
2023/06/30 04:10:51;;;;;;;1.92;1.15;;;20.50;73.90;;;;;;5075953;28;20444;-37
2023/06/30 04:13:18;;;;;;;2.35;1.45;;;;;;;;;;5074675;28;20136;-40
2023/06/30 04:15:45;;;;;;;1.27;1.05;;;;;;;;;;5074528;28;20136;-34
2023/06/30 04:18:13;;;;;;;2.08;1.35;;;20.50;69.10;;;;;;5074921;28;20132;-40
2023/06/30 04:20:40;;;;;;;3.28;1.40;;;20.70;77.70;;;;;;5074506;28;20055;-40
2023/06/30 04:23:06;;;;;;;2.20;1.25;;;19.90;77.60;;;;;;5074370;28;20638;-38
2023/06/30 04:25:33;;;;;;;2.85;1.17;;;21.20;67.50;;;;;;5074754;28;20131;-40
2023/06/30 04:28:00;;;;;;;1.90;1.25;;;19.70;77.10;;;;;;5075580;28;20127;-37
2023/06/30 04:30:27;;;;;;;1.75;1.20;;;20.50;78.40;;;;;;5074432;28;20055;-36
2023/06/30 04:32:53;;;;;;;1.67;1.20;;;21.00;66.60;;;;;;5085535;28;20128;-38
2023/06/30 04:35:25;;;;;;;1.75;1.20;;;21.80;78.70;;;;;;5094533;28;20051;-39
2023/06/30 04:37:52;;;;;;;1.95;1.00;;;;;;;;;;5093884;28;20577;-37
2023/06/30 04:40:20;;;;;;;3.25;1.50;;;21.40;70.00;;;;;;5094270;28;20565;-40
2023/06/30 04:42:46;;;;;;;2.70;1.33;;;21.50;78.00;;;;;;5088732;28;20131;-40
2023/06/30 04:45:13;;;;;;;2.05;1.20;;;20.70;78.00;;;;;;5074096;28;20051;-37
2023/06/30 04:47:40;;;;;;;3.60;1.20;;;21.20;68.80;;;;;;5074090;28;20048;-36
2023/06/30 04:50:07;;;;;;;1.90;1.30;;;21.10;78.20;;;;;;5081420;28;20067;-39
2023/06/30 04:52:35;;;;;;;2.22;1.30;;;20.50;62.60;;;;;;5094108;28;20052;-39
2023/06/30 04:55:02;;;;;;;4.15;1.45;;;;;;;;;;5094121;28;20577;-37
2023/06/30 04:57:29;;;;;;;1.65;1.02;;;19.70;77.20;;;;;;5094396;28;20468;-39
2023/06/30 04:59:56;;;;;;;1.60;1.10;;;;;;;;;;5077921;28;20083;-37
2023/06/30 05:02:23;;;;;;;4.65;1.20;;;20.80;77.70;;;;;;5073464;28;20119;-40
2023/06/30 05:04:51;;;;;;;4.68;1.30;;;20.80;78.50;;;;;;5073997;28;20132;-39
2023/06/30 05:07:17;;;;;;;3.08;1.20;;;20.70;78.50;;;;;;5073821;28;20060;-38
2023/06/30 05:09:46;;;;;;;2.08;1.13;;;20.70;61.00;;;;;;5073453;28;20412;-37
2023/06/30 05:12:14;;;;;;;2.50;1.40;;;;;;;;;;5073435;28;20048;-40
2023/06/30 05:14:41;;;;;;;2.30;1.30;;;20.50;77.90;;;;;;5074718;28;20051;-40
2023/06/30 05:17:08;;;;;;;2.70;1.38;;;19.70;70.00;;;;;;5073459;28;20140;-41
2023/06/30 05:19:35;;;;;;;2.75;1.10;;;;;;;;;;5073726;28;20143;-37
2023/06/30 05:22:02;;;;;;;2.33;1.17;;;21.00;75.20;;;;;;5073528;28;20045;-41
2023/06/30 05:24:29;;;;;;;1.95;1.20;;;21.20;78.70;;;;;;5073097;28;20709;-41
2023/06/30 05:26:57;;;;;;;2.85;1.35;;;20.40;77.40;;;;;;5073274;28;20502;-41
2023/06/30 05:29:24;;;;;;;2.08;1.27;;;20.30;66.10;;;;;;5073162;28;20044;-41
2023/06/30 05:31:51;;;;;;;2.03;1.17;;;;;;;;;;5085539;28;20131;-41
2023/06/30 05:34:17;;;;;;;2.78;1.20;;;19.60;72.00;;;;;;5073112;28;20131;-37
2023/06/30 05:36:44;;;;;;;2.10;1.00;;;20.50;77.50;;;;;;5080335;28;20067;-41
2023/06/30 05:39:12;;;;;;;2.60;1.40;;;;;;;;;;5090407;28;20044;-37
2023/06/30 05:41:38;;;;;;;3.47;1.40;;;21.50;78.10;;;;;;5083942;28;20454;-40
2023/06/30 05:44:07;;;;;;;2.20;1.20;;;20.70;77.60;;;;;;5082561;28;20048;-41
2023/06/30 05:46:34;;;;;;;1.50;1.15;;;20.50;77.40;;;;;;5081954;28;20497;-41
2023/06/30 05:49:02;;;;;;;1.50;1.00;;;20.80;77.80;;;;;;5081137;28;20123;-41
2023/06/30 05:51:28;;;;;;;3.17;1.15;;;20.60;78.40;;;;;;5081240;28;20040;-40
2023/06/30 05:53:55;;;;;;;2.28;1.20;;;21.00;77.80;;;;;;5084301;28;20130;-40
2023/06/30 05:56:22;;;;;;;2.30;1.20;;;21.00;65.50;;;;;;5080969;28;20382;-40
2023/06/30 05:58:49;;;;;;;1.83;1.00;;;19.90;77.10;;;;;;5079520;28;20123;-41
2023/06/30 06:01:17;;;;;;;2.33;1.13;;;20.90;77.80;;;;;;5081887;28;20036;-41
2023/06/30 06:03:43;;;;;;;1.67;1.20;;;20.70;78.50;;;;;;5081636;28;20083;-40
2023/06/30 06:06:10;;;;;;;2.38;1.13;;;;;;;;;;5078977;28;20561;-38
2023/06/30 06:08:39;;;;;;;2.67;1.20;;;20.50;77.60;;;;;;5072847;28;20084;-41
2023/06/30 06:11:06;;;;;;;1.20;1.00;;;;;;;;;;5072517;28;20494;-36
2023/06/30 06:13:33;;;;;;;2.53;1.10;;;20.40;77.80;;;;;;5072051;28;20416;-41
2023/06/30 06:16:00;;;;;;;1.55;0.88;;;;;;;;;;5072707;28;20052;-37
2023/06/30 06:18:28;;;;;;;2.30;1.13;;;21.20;77.90;;;;;;5072455;28;20580;-40
2023/06/30 06:20:56;;;;;;;1.33;1.00;;;19.70;77.10;;;;;;5088406;28;20130;-40
2023/06/30 06:23:23;;;;;;;1.50;1.10;;;;;;;;;;5089920;28;20044;-37
2023/06/30 06:25:50;;;;;;;2.75;1.10;;;20.90;65.80;;;;;;5091831;28;20122;-38
2023/06/30 06:28:16;;;;;;;1.90;1.50;;;21.70;78.10;;;;;;5091668;28;20058;-40
2023/06/30 06:30:44;;;;;;;2.20;1.27;;;20.60;76.60;;;;;;5092089;28;20048;-39
2023/06/30 06:33:10;;;;;;;1.90;1.13;;;19.60;67.10;;;;;;5091378;28;20054;-40
2023/06/30 06:35:38;;;;;;;2.40;1.10;;;20.70;61.00;;;;;;5086720;28;20420;-38
2023/06/30 06:38:05;;;;;;;2.10;1.15;;;21.10;63.40;;;;;;5091902;28;20054;-39
2023/06/30 06:40:32;;;;;;;2.25;1.20;;;20.30;77.80;;;;;;5092110;28;20566;-39
2023/06/30 06:42:59;;;;;;;2.08;1.23;;;;;;;;;;5091298;28;20131;-41
2023/06/30 06:45:26;;;;;;;2.50;1.10;;;20.30;63.00;;;;;;5079946;28;20135;-39
2023/06/30 06:48:18;;;;;;;1.88;1.10;;;20.90;78.10;;;;;;5081044;28;20067;-41
2023/06/30 06:50:46;;;;;;;1.50;1.00;;;20.80;61.10;;;;;;5082013;28;20076;-37
2023/06/30 06:53:17;;;;;;;1.52;1.17;;;20.80;61.10;;;;;;5071537;28;20051;-38
2023/06/30 06:55:44;;;;;;;2.28;1.10;;;;;;;;;;5071903;28;20102;-35
2023/06/30 06:58:10;;;;;;;2.38;1.10;;;20.90;78.00;;;;;;5070511;28;20045;-40
2023/06/30 07:00:37;;;;;;;3.05;1.20;;;20.30;77.90;;;;;;5071488;28;20046;-40
2023/06/30 07:03:04;;;;;;;2.03;1.10;;;19.80;61.50;;;;;;5070740;28;20131;-37
2023/06/30 07:05:31;;;;;;;1.80;1.00;;;20.20;77.70;;;;;;5070949;28;20097;-41
2023/06/30 07:07:59;;;;;;;1.50;1.10;;;20.80;61.10;;;;;;5071138;28;20085;-38
2023/06/30 07:10:26;;;;;;;2.75;1.20;;;;;;;;;;5073913;28;20122;-35
2023/06/30 07:12:53;;;;;;;1.65;1.00;;;21.10;77.90;;;;;;5081065;28;20123;-39
2023/06/30 07:15:20;;;;;;;2.22;1.10;;;20.80;63.10;;;;;;5080829;28;20055;-37
2023/06/30 07:17:47;;;;;;;2.75;1.20;;;20.30;64.40;;;;;;5071046;28;20049;-39
2023/06/30 07:20:14;;;;;;;1.90;1.17;;;20.80;78.60;;;;;;5074113;28;20128;-41
2023/06/30 07:22:41;;;;;;;1.50;1.17;;;;;;;;;;5077210;28;20041;-37
2023/06/30 07:25:09;;;;;;;1.80;1.30;;;20.50;77.80;;;;;;5080509;28;20044;-41
2023/06/30 07:27:36;;;;;;;2.28;1.20;;;20.80;61.10;;;;;;5078545;28;20052;-41
2023/06/30 07:30:04;;;;;;;2.42;1.30;;;21.30;78.70;;;;;;5081297;28;20055;-40
2023/06/30 07:32:31;;;;;;;2.55;1.20;;;20.80;61.10;;;;;;5081010;28;20098;-38
2023/06/30 07:34:58;;;;;;;1.92;1.13;;;21.10;77.70;;;;;;5070792;28;20051;-41
2023/06/30 07:37:24;;;;;;;1.67;1.20;;;19.80;69.20;;;;;;5083232;28;20048;-41
2023/06/30 07:39:51;;;;;;;1.15;1.00;;;;;;;;;;5081392;28;20048;-39
2023/06/30 07:42:19;;;;;;;1.67;1.27;;;21.10;77.80;;;;;;5071330;28;20048;-41
2023/06/30 07:44:46;;;;;;;1.25;1.00;;;21.70;78.00;;;;;;5071174;28;20128;-40
2023/06/30 07:47:13;;;;;;;1.85;1.30;;;;;;;;;;5071729;28;20446;-37
2023/06/30 07:49:40;;;;;;;2.45;1.10;;;19.80;77.00;;;;;;5071746;28;20059;-41
2023/06/30 07:52:07;;;;;;;1.55;1.10;;;20.80;77.90;;;;;;5071380;28;20055;-40
2023/06/30 07:54:34;;;;;;;1.70;1.27;;;;;;;;;;5072402;28;20044;-41
2023/06/30 07:57:01;;;;;;;1.35;1.00;;;20.50;77.70;;;;;;5071049;28;20730;-39
2023/06/30 07:59:29;;;;;;;2.90;1.20;;;20.70;67.40;;;;;;5071365;28;20075;-40
2023/06/30 08:01:56;;;;;;;1.92;1.10;;;;;;;;;;5071371;28;20082;-38
2023/06/30 08:04:23;;;;;;;1.85;1.20;;;20.80;77.50;;;;;;5071035;28;20049;-40
2023/06/30 08:06:50;;;;;;;1.10;1.00;;;;;;;;;;5071477;28;20139;-34
2023/06/30 08:09:17;;;;;;;1.50;1.10;;;;;;;;;;5074502;28;20052;-31
2023/06/30 08:11:44;;;;;;;2.22;1.35;;;;;;;;;;5082929;28;20044;-35
2023/06/30 08:14:11;;;;;;;2.83;1.20;;;21.00;78.30;;;;;;5085367;28;20111;-31
2023/06/30 08:16:39;;;;;;;1.70;1.10;;;20.70;77.40;;;;;;5086263;28;20045;-31
2023/06/30 08:19:06;;;;;;;2.65;1.27;;;21.40;78.60;;;;;;5083404;28;20120;-32
2023/06/30 08:21:33;;;;;;;2.60;1.20;;;20.80;76.90;;;;;;5084714;28;20040;-31
2023/06/30 08:23:59;;;;;;;1.75;1.00;;;20.80;77.30;;;;;;5080684;28;20131;-31
2023/06/30 08:26:26;;;;;;;1.25;1.00;;;;;;;;;;5079924;28;20135;-36
2023/06/30 08:28:54;;;;;;;2.42;1.60;;;21.40;77.70;;;;;;5093355;28;20131;-32
2023/06/30 08:31:21;;;;;;;2.70;1.33;;;21.00;63.40;;;;;;5086169;28;20048;-33
2023/06/30 08:33:49;;;;;;;2.10;1.13;;;21.30;68.20;;;;;;5094176;28;20047;-33
2023/06/30 08:36:15;;;;;;;2.25;1.05;;;21.90;77.60;;;;;;5086596;28;20416;-31
2023/06/30 08:38:42;;;;;;;1.92;1.20;;;20.20;76.80;;;;;;5091422;28;20140;-31
2023/06/30 08:41:09;;;;;;;1.58;1.20;;;;;;;;;;5094545;28;20067;-34
2023/06/30 08:43:36;;;;;;;2.65;1.20;;;21.20;77.20;;;;;;5094179;28;20131;-30
2023/06/30 08:46:03;;;;;;;1.27;1.10;;;;;;;;;;5082392;28;20123;-30
2023/06/30 08:48:31;;;;;;;1.48;1.05;;;21.10;77.50;;;;;;5084760;28;20123;-31
2023/06/30 08:50:59;;;;;;;4.22;1.27;;;21.50;72.50;;;;;;5083561;28;20048;-31
2023/06/30 08:53:27;;;;;;;3.20;1.30;;;21.50;77.60;;;;;;5080580;28;20054;-31
2023/06/30 08:55:54;;;;;;;1.92;1.02;;;21.80;72.90;;;;;;5084046;28;20468;-31
2023/06/30 08:58:21;;;;;;;1.33;1.08;;;20.30;76.40;;;;;;5084278;28;20564;-32
2023/06/30 09:00:47;;;;;;;1.30;1.10;;;21.90;63.40;;;;;;5084902;28;20075;-33
2023/06/30 09:03:14;;;;;;;2.00;1.10;;;21.30;76.40;;;;;;5081931;28;20139;-32
2023/06/30 09:05:42;;;;;;;1.52;1.20;;;;;;;;;;5084866;28;20053;-31
2023/06/30 09:08:11;;;;;;;1.45;1.02;;;22.00;77.20;;;;;;5079558;28;20135;-31
2023/06/30 09:10:38;;;;;;;2.08;1.20;;;21.50;65.30;;;;;;5083559;28;20140;-32
2023/06/30 09:13:05;;;;;;;1.33;1.15;;;22.10;77.70;;;;;;5093837;28;20485;-32
2023/06/30 09:15:32;;;;;;;1.52;1.00;;;;;;;;;;5086020;28;20498;-36
2023/06/30 09:17:59;;;;;;;1.23;1.10;;;21.70;77.30;;;;;;5092736;28;20557;-32
2023/06/30 09:20:26;;;;;;;1.27;1.00;;;;;;;;;;5086251;28;20132;-33
2023/06/30 09:22:52;;;;;;;1.55;0.95;;;21.90;71.10;;;;;;5089468;28;20048;-31
2023/06/30 09:25:40;;;;;;;1.67;1.00;;;21.30;76.00;;;;;;5079613;28;20556;-31
2023/06/30 09:28:09;;;;;;;2.38;1.30;;;21.70;59.90;;;;;;5085072;28;20056;-31
2023/06/30 09:30:37;;;;;;;2.38;1.27;;;21.70;59.80;;;;;;5093563;28;20054;-36
2023/06/30 09:33:04;;;;;;;1.70;1.10;;;21.80;76.10;;;;;;5093154;28;20127;-31
2023/06/30 09:35:36;;;;;;;1.35;1.02;;;21.70;59.70;;;;;;5086101;28;20123;-35
2023/06/30 09:38:03;;;;;;;2.40;1.13;;;22.10;72.00;;;;;;5074320;28;20675;-32
2023/06/30 09:40:29;;;;;;;1.90;1.20;;;21.40;76.50;;;;;;5082693;28;20082;-32
2023/06/30 09:42:58;;;;;;;2.35;1.25;;;22.20;76.90;;;;;;5093244;28;20126;-31
2023/06/30 09:45:25;;;;;;;2.10;1.10;;;;;;;;;;5073207;28;20124;-33
2023/06/30 09:47:52;;;;;;;2.10;1.25;;;22.30;76.70;;;;;;5076372;28;20047;-34
2023/06/30 09:50:22;;;;;;;2.08;1.10;;;22.00;59.50;;;;;;5079149;28;20109;-35
2023/06/30 09:52:49;;;;;;;2.22;1.20;;;22.00;61.80;;;;;;5073305;28;20044;-34
2023/06/30 09:55:16;;;;;;;1.50;1.08;;;21.50;75.30;;;;;;5072581;28;20581;-32
2023/06/30 09:57:43;;;;;;;1.00;0.90;;;21.90;75.60;;;;;;5072966;28;20131;-32
2023/06/30 10:00:14;;;;;;;1.88;1.13;;;22.00;75.50;;;;;;5072997;28;20058;-31
2023/06/30 10:02:42;;;;;;;1.73;1.20;;;;;;;;;;5072854;28;20048;-36
2023/06/30 10:05:10;;;;;;;1.20;1.10;;;;;;;;;;5086863;28;20096;-36
2023/06/30 10:07:37;;;;;;;2.05;1.00;;;21.90;75.30;;;;;;5091440;28;20420;-32
2023/06/30 10:10:04;;;;;;;1.30;1.00;;;22.10;59.20;;;;;;5092595;28;20568;-34
2023/06/30 10:12:31;;;;;;;1.52;1.23;;;22.50;76.50;;;;;;5092466;28;20549;-31
2023/06/30 10:14:58;;;;;;;1.90;1.17;;;21.60;65.40;;;;;;5092706;28;20126;-33
2023/06/30 10:17:26;;;;;;;1.50;1.10;;;22.30;75.30;;;;;;5092908;28;20147;-31
2023/06/30 10:19:53;;;;;;;2.05;1.00;;;22.50;75.40;;;;;;5085430;28;20051;-31
2023/06/30 10:22:19;;;;;;;2.00;1.05;;;22.90;76.60;;;;;;5072179;28;20132;-31
2023/06/30 10:24:47;;;;;;;1.60;1.00;;;;;;;;;;5072555;28;20127;-34
2023/06/30 10:27:14;;;;;;;2.08;1.02;;;21.80;61.90;;;;;;5076055;28;20138;-34
2023/06/30 10:29:41;;;;;;;3.25;0.93;;;21.70;75.90;;;;;;5089878;28;20135;-31
2023/06/30 10:32:08;;;;;;;0.88;0.80;;;23.10;75.80;;;;;;5079916;28;20472;-31
2023/06/30 10:34:36;;;;;;;2.60;1.10;;;22.10;59.20;;;;;;5071827;28;20102;-32
2023/06/30 10:37:03;;;;;;;1.27;1.02;;;22.80;75.70;;;;;;5089760;28;20135;-31
2023/06/30 10:39:30;;;;;;;1.50;1.00;;;22.20;75.60;;;;;;5091647;28;20081;-32
2023/06/30 10:41:57;;;;;;;1.33;1.10;;;21.90;65.80;;;;;;5092342;28;20087;-32
2023/06/30 10:44:36;;;;;;;1.98;1.08;;;22.50;75.30;;;;;;5092084;28;20056;-32
2023/06/30 10:47:03;;;;;;;2.17;0.90;;;;;;;;;;5092761;28;20048;-35
2023/06/30 10:49:30;;;;;;;1.60;1.00;;;22.60;75.40;;;;;;5092351;28;20126;-32
2023/06/30 10:51:59;;;;;;;2.25;1.10;;;22.00;68.90;;;;;;5090591;28;20044;-32
2023/06/30 10:54:26;;;;;;;1.52;0.95;;;22.20;75.90;;;;;;5091575;28;20052;-33
2023/06/30 10:56:54;;;;;;;2.95;1.05;;;21.70;60.90;;;;;;5092423;28;20048;-37
2023/06/30 10:59:23;;;;;;;2.08;1.13;;;21.90;75.70;;;;;;5092286;28;20048;-40
2023/06/30 11:02:22;;;;;;;1.80;1.00;;;22.30;58.90;;;;;;5091490;28;20048;-38
2023/06/30 11:04:50;;;;;;;2.10;1.10;;;22.30;59.00;;;;;;5080158;28;20050;-35
2023/06/30 11:07:19;;;;;;;1.83;0.95;;;22.30;59.00;;;;;;5084491;28;20048;-36
2023/06/30 11:10:04;;;;;;;5.10;1.20;;;22.60;64.90;;;;;;5092346;28;20123;-36
2023/06/30 11:12:51;;;;;;;1.90;1.10;;;22.70;75.30;;;;;;5091221;28;20130;-41
2023/06/30 11:15:29;;;;;;;1.45;1.10;;;21.80;74.80;;;;;;5079912;28;20080;-38
2023/06/30 11:17:59;;;;;;;2.25;1.20;;;22.40;64.10;;;;;;5080697;28;20045;-40
2023/06/30 11:20:27;;;;;;;1.42;1.10;;;22.80;72.90;;;;;;5081192;28;20048;-41
2023/06/30 11:23:00;;;;;;;2.70;1.17;;;22.00;75.10;;;;;;5077971;28;20040;-40
2023/06/30 11:25:28;;;;;;;3.25;2.00;;;22.20;75.70;;;;;;5080164;28;20044;-41
2023/06/30 11:27:55;;;;;;;1.60;1.08;;;21.90;67.30;;;;;;5082362;28;20047;-40
2023/06/30 11:30:23;;;;;;;3.92;0.95;;;;;;;;;;5079943;28;20623;-36
2023/06/30 11:32:55;;;;;;;1.90;1.25;;;22.00;75.00;;;;;;5083058;28;20040;-40
2023/06/30 11:35:22;;;;;;;1.80;0.98;;;21.60;62.90;;;;;;5082803;28;20045;-37
2023/06/30 11:37:49;;;;;;;1.92;1.08;;;22.20;75.90;;;;;;5080951;28;20047;-32
2023/06/30 11:40:17;;;;;;;2.17;1.08;;;22.20;75.20;;;;;;5081407;28;20048;-31
2023/06/30 11:42:45;;;;;;;1.73;1.17;;;;;;;;;;5081256;28;20124;-35
2023/06/30 11:45:16;;;;;;;2.17;1.20;;;22.30;75.70;;;;;;5084865;28;20045;-32
2023/06/30 11:47:46;;;;;;;1.27;1.00;;;21.50;74.90;;;;;;5086056;28;20048;-33
2023/06/30 11:50:13;;;;;;;1.88;1.08;;;22.20;75.90;;;;;;5082019;28;20048;-33
2023/06/30 11:52:40;;;;;;;2.90;1.38;;;22.60;76.30;;;;;;5082858;28;20036;-32
2023/06/30 11:55:07;;;;;;;1.00;0.90;;;22.50;63.70;;;;;;5083351;28;20468;-32
2023/06/30 11:57:36;;;;;;;1.63;1.00;;;22.40;75.60;;;;;;5079523;28;20048;-32
2023/06/30 12:00:11;;;;;;;1.35;1.00;;;22.20;59.20;;;;;;5094023;28;20059;-35
2023/06/30 12:02:37;;;;;;;;;;;22.20;59.70;;;;;;5085838;28;20127;-32
2023/06/30 12:05:11;;;;;;;3.30;1.20;;;22.00;75.30;;;;;;5074377;28;20357;-33
2023/06/30 12:07:38;;;;;;;2.17;1.10;;;21.90;75.00;;;;;;5074975;28;20059;-31
2023/06/30 12:10:06;;;;;;;5.85;1.70;;;21.90;76.00;;;;;;5074468;28;20124;-32
2023/06/30 12:12:34;;;;;;;2.58;1.40;;;22.40;75.50;;;;;;5074627;28;20048;-32
2023/06/30 12:15:03;;;;;;;2.58;1.05;;;22.40;75.70;;;;;;5074742;28;20057;-31
2023/06/30 12:17:30;;;;;;;4.05;1.35;;;22.50;66.00;;;;;;5087711;28;20131;-33
2023/06/30 12:19:56;;;;;;;3.10;1.35;;;22.40;75.10;;;;;;5083857;28;20563;-32
2023/06/30 12:22:27;;;;;;;3.40;1.30;;;22.90;67.40;;;;;;5073879;28;20479;-33
2023/06/30 12:24:57;;;;;;;2.17;1.45;;;22.40;59.30;;;;;;5074438;28;20090;-35
2023/06/30 12:27:26;;;;;;;4.13;1.20;;;22.20;70.30;;;;;;5081567;28;20044;-33
2023/06/30 12:29:54;;;;;;;1.63;1.13;;;22.30;75.00;;;;;;5093243;28;20128;-32
2023/06/30 12:32:22;;;;;;;2.80;1.48;;;22.60;72.70;;;;;;5093770;28;20075;-33
2023/06/30 12:34:49;;;;;;;1.95;1.30;;;22.80;75.60;;;;;;5093265;28;20050;-39
2023/06/30 12:37:17;;;;;;;2.55;1.33;;;23.50;75.70;;;;;;5082901;28;20123;-39
2023/06/30 12:39:44;;;;;;;2.00;1.25;;;;;;;;;;5085124;28;20051;-38
2023/06/30 12:42:12;;;;;;;2.80;1.15;;;21.90;72.20;;;;;;5084298;28;20127;-37
2023/06/30 12:44:38;;;;;;;3.35;1.42;;;21.80;66.40;;;;;;5091552;28;20070;-39
2023/06/30 12:47:07;;;;;;;1.58;1.10;;;22.20;75.20;;;;;;5088688;28;20129;-41
2023/06/30 12:49:36;;;;;;;1.20;1.10;;;22.20;75.00;;;;;;5080991;28;20045;-41
2023/06/30 12:52:04;;;;;;;1.80;1.00;;;;;;;;;;5083363;28;20127;-34
2023/06/30 12:54:31;;;;;;;2.38;1.20;;;;;;;;;;5085751;28;20131;-37
2023/06/30 12:56:57;;;;;;;2.13;1.23;;;22.20;74.80;;;;;;5088704;28;20046;-40
2023/06/30 12:59:24;;;;;;;1.55;1.27;;;;;;;;;;5087156;28;20054;-37
2023/06/30 13:01:52;;;;;;;2.83;1.20;;;;;;;;;;5085365;28;20047;-39
2023/06/30 13:04:20;;;;;;;1.52;1.20;;;22.40;59.00;;;;;;5082545;28;20040;-39
2023/06/30 13:06:47;;;;;;;1.85;1.20;;;22.00;63.40;;;;;;5084645;28;20411;-37
2023/06/30 13:09:14;;;;;;;1.30;1.00;;;23.10;75.30;;;;;;5083265;28;20055;-41
2023/06/30 13:11:41;;;;;;;2.85;1.30;;;22.30;75.00;;;;;;5082889;28;20404;-40